Terminal Aerodrome Forecast
Issued by NWS

Home | Current Version | Previous Version | Text Only | Print | Product List | Glossary On
Versions: 1 2 3 4 5 6 7 8 9 10 11 12 13 14 15 16 17 18 19 20 21 22 23
000
FTUS43 KSGF 021700
TAFJLN
TAF
KJLN 021725Z 0218/0318 23006KT P6SM SKC
     FM021900 19008KT P6SM SCT050 SCT120
     FM022300 15007KT P6SM BKN120
     FM030600 16008KT P6SM VCSH SCT060 BKN200
     FM031200 18010KT P6SM BKN250=

USA.gov is the U.S. government's official web portal to all federal, state and local government web resources and services.